DLH4H EGLL-EDDF
Flight info
| Callsign | DLH4H |
|---|---|
| Flight time | 1h 9m |
| Altitude | 35000 |
| Route | DET L6 DVR UL9 KONAN UL607 SPI T180 NIVNU T847 IMCOM IMCOM1A |
| Aircraft | A320/M-SDE3FGHIRWY/LB1 |
Departure
| Time | 2026-05-05 16:21 |
|---|---|
| Airport | London Heathrow Airport (EGLL) |
Arrival
| Time | 2026-05-05 17:31 |
|---|---|
| Airport | Frankfurt Main Airport (EDDF) |
| Time | Latitude | Longitude | Altitude | Speed | Heading |
|---|---|---|---|---|---|
| 2026-05-05 15:44 | 51.46996 | -0.44682 | 90 ft | 0 kts | 270° |
| 2026-05-05 16:03 | 51.46996 | -0.44658 | 86 ft | 4 kts | 270° |
| 2026-05-05 16:03 | 51.46996 | -0.44615 | 86 ft | 3 kts | 270° |
| 2026-05-05 16:03 | 51.46998 | -0.44582 | 87 ft | 4 kts | 234° |
| 2026-05-05 16:04 | 51.47018 | -0.44560 | 87 ft | 4 kts | 188° |
| 2026-05-05 16:04 | 51.47032 | -0.44558 | 87 ft | 0 kts | 180° |
| 2026-05-05 16:07 | 51.47010 | -0.44558 | 88 ft | 9 kts | 179° |
| 2026-05-05 16:07 | 51.46956 | -0.44556 | 88 ft | 8 kts | 179° |
| 2026-05-05 16:07 | 51.46906 | -0.44555 | 86 ft | 7 kts | 179° |
| 2026-05-05 16:08 | 51.46845 | -0.44553 | 86 ft | 11 kts | 180° |
| 2026-05-05 16:08 | 51.46761 | -0.44553 | 86 ft | 15 kts | 180° |
| 2026-05-05 16:08 | 51.46672 | -0.44580 | 90 ft | 12 kts | 228° |
| 2026-05-05 16:08 | 51.46664 | -0.44721 | 87 ft | 16 kts | 270° |
| 2026-05-05 16:09 | 51.46664 | -0.44913 | 87 ft | 18 kts | 270° |
| 2026-05-05 16:09 | 51.46664 | -0.45127 | 86 ft | 20 kts | 269° |
| 2026-05-05 16:09 | 51.46663 | -0.45363 | 86 ft | 22 kts | 270° |
| 2026-05-05 16:09 | 51.46662 | -0.45533 | 86 ft | 24 kts | 270° |
| 2026-05-05 16:10 | 51.46662 | -0.45777 | 86 ft | 20 kts | 270° |
| 2026-05-05 16:10 | 51.46660 | -0.46091 | 86 ft | 22 kts | 270° |
| 2026-05-05 16:10 | 51.46659 | -0.46300 | 88 ft | 19 kts | 269° |
| 2026-05-05 16:10 | 51.46659 | -0.46521 | 90 ft | 21 kts | 270° |
| 2026-05-05 16:11 | 51.46658 | -0.46758 | 86 ft | 19 kts | 269° |
| 2026-05-05 16:11 | 51.46656 | -0.47332 | 89 ft | 17 kts | 269° |
| 2026-05-05 16:12 | 51.46655 | -0.47521 | 86 ft | 17 kts | 269° |
| 2026-05-05 16:12 | 51.46654 | -0.47872 | 86 ft | 13 kts | 270° |
| 2026-05-05 16:13 | 51.46654 | -0.48091 | 86 ft | 0 kts | 270° |
| 2026-05-05 16:18 | 51.46654 | -0.48121 | 86 ft | 7 kts | 270° |
| 2026-05-05 16:18 | 51.46614 | -0.48211 | 89 ft | 5 kts | 180° |
| 2026-05-05 16:19 | 51.46595 | -0.48211 | 87 ft | 0 kts | 180° |
| 2026-05-05 16:19 | 51.46508 | -0.48208 | 88 ft | 10 kts | 169° |
| 2026-05-05 16:20 | 51.46479 | -0.48107 | 88 ft | 0 kts | 89° |
| 2026-05-05 16:20 | 51.46484 | -0.47045 | 91 ft | 116 kts | 89° |
| 2026-05-05 16:21 | 51.46482 | -0.43605 | 825 ft | 164 kts | 89° |
| 2026-05-05 16:22 | 51.44943 | -0.38112 | 2564 ft | 216 kts | 118° |
| 2026-05-05 16:22 | 51.43495 | -0.33405 | 3675 ft | 255 kts | 100° |
| 2026-05-05 16:23 | 51.42689 | -0.27713 | 5622 ft | 265 kts | 100° |
| 2026-05-05 16:23 | 51.42282 | -0.24799 | 6556 ft | 271 kts | 100° |
| 2026-05-05 16:23 | 51.41464 | -0.18798 | 8325 ft | 280 kts | 101° |
| 2026-05-05 16:24 | 51.41052 | -0.15761 | 9215 ft | 285 kts | 101° |
| 2026-05-05 16:24 | 51.40624 | -0.12627 | 10078 ft | 291 kts | 101° |
| 2026-05-05 16:24 | 51.39682 | -0.05780 | 10732 ft | 339 kts | 101° |
| 2026-05-05 16:25 | 51.39151 | -0.02012 | 11215 ft | 352 kts | 102° |
| 2026-05-05 16:25 | 51.37956 | 0.05687 | 12827 ft | 359 kts | 104° |
| 2026-05-05 16:25 | 51.37323 | 0.09572 | 13649 ft | 362 kts | 104° |
| 2026-05-05 16:26 | 51.36033 | 0.17432 | 15036 ft | 369 kts | 103° |
| 2026-05-05 16:26 | 51.34727 | 0.25468 | 16291 ft | 378 kts | 104° |
| 2026-05-05 16:27 | 51.34065 | 0.29568 | 16922 ft | 383 kts | 104° |
| 2026-05-05 16:27 | 51.33397 | 0.33705 | 17566 ft | 386 kts | 103° |
| 2026-05-05 16:27 | 51.32720 | 0.37879 | 18362 ft | 389 kts | 104° |
| 2026-05-05 16:27 | 51.32034 | 0.42090 | 18893 ft | 393 kts | 104° |
| 2026-05-05 16:28 | 51.31338 | 0.46341 | 19425 ft | 397 kts | 104° |
| 2026-05-05 16:28 | 51.30645 | 0.50546 | 19929 ft | 401 kts | 104° |
| 2026-05-05 16:28 | 51.29931 | 0.54873 | 20424 ft | 405 kts | 104° |
| 2026-05-05 16:28 | 51.29209 | 0.59247 | 20941 ft | 408 kts | 104° |
| 2026-05-05 16:29 | 51.28954 | 0.60793 | 21115 ft | 409 kts | 104° |
| 2026-05-05 16:29 | 51.28289 | 0.64841 | 21566 ft | 412 kts | 104° |
| 2026-05-05 16:30 | 51.27864 | 0.67422 | 21852 ft | 414 kts | 104° |
| 2026-05-05 16:30 | 51.27180 | 0.71545 | 22311 ft | 417 kts | 104° |
| 2026-05-05 16:30 | 51.26431 | 0.76036 | 22795 ft | 420 kts | 104° |
| 2026-05-05 16:31 | 51.25672 | 0.80556 | 23254 ft | 423 kts | 105° |
| 2026-05-05 16:31 | 51.25657 | 0.80646 | 23265 ft | 423 kts | 105° |
| 2026-05-05 16:31 | 51.25153 | 0.83639 | 23564 ft | 426 kts | 105° |
| 2026-05-05 16:32 | 51.24383 | 0.88219 | 23974 ft | 428 kts | 105° |
| 2026-05-05 16:32 | 51.24252 | 0.88995 | 24034 ft | 428 kts | 105° |
| 2026-05-05 16:33 | 51.23673 | 0.92442 | 24338 ft | 430 kts | 105° |
| 2026-05-05 16:33 | 51.22897 | 0.97053 | 24691 ft | 432 kts | 107° |
| 2026-05-05 16:33 | 51.22109 | 1.01712 | 25051 ft | 436 kts | 106° |
| 2026-05-05 16:34 | 51.21325 | 1.06334 | 25429 ft | 438 kts | 107° |
| 2026-05-05 16:34 | 51.20550 | 1.10894 | 25814 ft | 440 kts | 107° |
| 2026-05-05 16:34 | 51.19746 | 1.15620 | 26234 ft | 442 kts | 106° |
| 2026-05-05 16:34 | 51.18938 | 1.20351 | 26649 ft | 443 kts | 106° |
| 2026-05-05 16:35 | 51.18126 | 1.25099 | 27041 ft | 445 kts | 108° |
| 2026-05-05 16:35 | 51.17308 | 1.29855 | 27423 ft | 446 kts | 107° |
| 2026-05-05 16:35 | 51.16516 | 1.34645 | 27785 ft | 449 kts | 104° |
| 2026-05-05 16:35 | 51.16084 | 1.39581 | 28137 ft | 452 kts | 96° |
| 2026-05-05 16:36 | 51.15856 | 1.44589 | 28484 ft | 454 kts | 96° |
| 2026-05-05 16:36 | 51.15620 | 1.49612 | 28836 ft | 455 kts | 96° |
| 2026-05-05 16:36 | 51.15378 | 1.54650 | 29165 ft | 457 kts | 97° |
| 2026-05-05 16:36 | 51.15129 | 1.59699 | 29483 ft | 459 kts | 97° |
| 2026-05-05 16:37 | 51.14878 | 1.64768 | 29845 ft | 459 kts | 97° |
| 2026-05-05 16:37 | 51.14624 | 1.69830 | 30261 ft | 458 kts | 97° |
| 2026-05-05 16:37 | 51.14371 | 1.74875 | 30633 ft | 457 kts | 98° |
| 2026-05-05 16:37 | 51.14116 | 1.79910 | 30992 ft | 456 kts | 97° |
| 2026-05-05 16:38 | 51.13859 | 1.84942 | 31340 ft | 456 kts | 97° |
| 2026-05-05 16:38 | 51.13601 | 1.89964 | 31706 ft | 455 kts | 97° |
| 2026-05-05 16:38 | 51.13342 | 1.94973 | 32096 ft | 453 kts | 96° |
| 2026-05-05 16:38 | 51.13082 | 1.99970 | 32471 ft | 452 kts | 97° |
| 2026-05-05 16:39 | 51.12820 | 2.04948 | 32840 ft | 451 kts | 96° |
| 2026-05-05 16:39 | 51.12553 | 2.09919 | 33211 ft | 450 kts | 97° |
| 2026-05-05 16:39 | 51.12284 | 2.14878 | 33573 ft | 450 kts | 98° |
| 2026-05-05 16:39 | 51.12013 | 2.19833 | 33925 ft | 449 kts | 97° |
| 2026-05-05 16:40 | 51.11742 | 2.24780 | 34220 ft | 449 kts | 96° |
| 2026-05-05 16:40 | 51.11471 | 2.29729 | 34486 ft | 449 kts | 97° |
| 2026-05-05 16:40 | 51.11198 | 2.34689 | 34746 ft | 450 kts | 96° |
| 2026-05-05 16:40 | 51.10924 | 2.39648 | 34874 ft | 450 kts | 98° |
| 2026-05-05 16:41 | 51.10376 | 2.49552 | 34906 ft | 449 kts | 98° |
| 2026-05-05 16:41 | 51.09807 | 2.59439 | 34906 ft | 449 kts | 98° |
| 2026-05-05 16:42 | 51.08766 | 2.69162 | 34902 ft | 444 kts | 108° |
| 2026-05-05 16:42 | 51.07046 | 2.78600 | 34901 ft | 444 kts | 109° |
| 2026-05-05 16:43 | 51.05340 | 2.87978 | 34907 ft | 445 kts | 109° |
| 2026-05-05 16:43 | 51.03621 | 2.97415 | 34912 ft | 445 kts | 109° |
| 2026-05-05 16:44 | 51.01892 | 3.06843 | 34906 ft | 444 kts | 109° |
| 2026-05-05 16:44 | 51.00158 | 3.16255 | 34901 ft | 444 kts | 109° |
| 2026-05-05 16:45 | 50.98413 | 3.25657 | 34894 ft | 444 kts | 109° |
| 2026-05-05 16:45 | 50.96662 | 3.35050 | 34885 ft | 443 kts | 109° |
| 2026-05-05 16:46 | 50.94907 | 3.44411 | 34883 ft | 442 kts | 110° |
| 2026-05-05 16:46 | 50.93147 | 3.53752 | 34884 ft | 442 kts | 110° |
| 2026-05-05 16:47 | 50.91378 | 3.63081 | 34879 ft | 442 kts | 110° |
| 2026-05-05 16:47 | 50.89601 | 3.72398 | 34877 ft | 441 kts | 110° |
| 2026-05-05 16:48 | 50.87808 | 3.81685 | 34869 ft | 441 kts | 110° |
| 2026-05-05 16:48 | 50.86008 | 3.90954 | 34873 ft | 440 kts | 110° |
| 2026-05-05 16:49 | 50.84198 | 4.00201 | 34880 ft | 440 kts | 110° |
| 2026-05-05 16:49 | 50.82387 | 4.09438 | 34880 ft | 440 kts | 110° |
| 2026-05-05 16:50 | 50.80570 | 4.18666 | 34885 ft | 440 kts | 110° |
| 2026-05-05 16:50 | 50.78747 | 4.27887 | 34899 ft | 439 kts | 110° |
| 2026-05-05 16:51 | 50.76925 | 4.37069 | 34890 ft | 438 kts | 110° |
| 2026-05-05 16:51 | 50.75093 | 4.46235 | 34885 ft | 437 kts | 110° |
| 2026-05-05 16:52 | 50.73259 | 4.55382 | 34884 ft | 437 kts | 110° |
| 2026-05-05 16:52 | 50.71427 | 4.64524 | 34879 ft | 437 kts | 110° |
| 2026-05-05 16:53 | 50.69651 | 4.73699 | 34866 ft | 437 kts | 110° |
| 2026-05-05 16:53 | 50.67888 | 4.82884 | 34860 ft | 438 kts | 110° |
| 2026-05-05 16:54 | 50.66117 | 4.91998 | 34855 ft | 438 kts | 110° |
| 2026-05-05 16:54 | 50.64259 | 5.01204 | 34858 ft | 438 kts | 111° |
| 2026-05-05 16:55 | 50.62370 | 5.10256 | 34870 ft | 438 kts | 111° |
| 2026-05-05 16:55 | 50.60465 | 5.19378 | 34857 ft | 439 kts | 111° |
| 2026-05-05 16:56 | 50.58574 | 5.28494 | 34862 ft | 438 kts | 111° |
| 2026-05-05 16:56 | 50.56682 | 5.37599 | 34862 ft | 438 kts | 111° |
| 2026-05-05 16:57 | 50.54779 | 5.46698 | 34857 ft | 438 kts | 111° |
| 2026-05-05 16:57 | 50.52865 | 5.55779 | 34853 ft | 437 kts | 111° |
| 2026-05-05 16:58 | 50.51279 | 5.63316 | 34852 ft | 437 kts | 111° |
| 2026-05-05 16:58 | 50.49510 | 5.72443 | 34867 ft | 436 kts | 109° |
| 2026-05-05 16:59 | 50.47851 | 5.81600 | 34861 ft | 436 kts | 109° |
| 2026-05-05 16:59 | 50.46189 | 5.90665 | 34863 ft | 435 kts | 109° |
| 2026-05-05 17:00 | 50.44474 | 5.99752 | 34856 ft | 434 kts | 110° |
| 2026-05-05 17:00 | 50.42744 | 6.08813 | 34826 ft | 433 kts | 110° |
| 2026-05-05 17:01 | 50.41880 | 6.13324 | 34574 ft | 430 kts | 110° |
| 2026-05-05 17:01 | 50.41021 | 6.17808 | 34331 ft | 428 kts | 110° |
| 2026-05-05 17:01 | 50.40164 | 6.22272 | 34094 ft | 427 kts | 110° |
| 2026-05-05 17:01 | 50.39321 | 6.26658 | 33858 ft | 425 kts | 110° |
| 2026-05-05 17:02 | 50.38470 | 6.31087 | 33571 ft | 425 kts | 110° |
| 2026-05-05 17:02 | 50.37620 | 6.35521 | 33298 ft | 425 kts | 110° |
| 2026-05-05 17:02 | 50.36764 | 6.40022 | 32956 ft | 427 kts | 108° |
| 2026-05-05 17:02 | 50.36198 | 6.44563 | 31846 ft | 436 kts | 99° |
| 2026-05-05 17:03 | 50.35913 | 6.49324 | 30824 ft | 441 kts | 97° |
| 2026-05-05 17:03 | 50.35633 | 6.54133 | 29697 ft | 447 kts | 97° |
| 2026-05-05 17:03 | 50.35340 | 6.59016 | 28430 ft | 453 kts | 97° |
| 2026-05-05 17:03 | 50.35036 | 6.63938 | 27284 ft | 456 kts | 97° |
| 2026-05-05 17:04 | 50.34722 | 6.68840 | 26599 ft | 449 kts | 97° |
| 2026-05-05 17:04 | 50.34407 | 6.73677 | 25830 ft | 445 kts | 97° |
| 2026-05-05 17:04 | 50.34095 | 6.78475 | 25064 ft | 441 kts | 97° |
| 2026-05-05 17:04 | 50.33748 | 6.83218 | 24305 ft | 437 kts | 101° |
| 2026-05-05 17:05 | 50.33015 | 6.87805 | 23579 ft | 432 kts | 110° |
| 2026-05-05 17:05 | 50.31852 | 6.92103 | 22948 ft | 427 kts | 116° |
| 2026-05-05 17:05 | 50.30597 | 6.96279 | 22348 ft | 422 kts | 116° |
| 2026-05-05 17:05 | 50.29360 | 7.00424 | 21760 ft | 419 kts | 116° |
| 2026-05-05 17:06 | 50.28135 | 7.04540 | 21213 ft | 416 kts | 116° |
| 2026-05-05 17:06 | 50.26922 | 7.08618 | 20683 ft | 413 kts | 116° |
| 2026-05-05 17:06 | 50.25714 | 7.12671 | 20141 ft | 410 kts | 116° |
| 2026-05-05 17:06 | 50.24514 | 7.16692 | 19614 ft | 407 kts | 116° |
| 2026-05-05 17:07 | 50.23338 | 7.20618 | 19092 ft | 404 kts | 116° |
| 2026-05-05 17:07 | 50.22146 | 7.24581 | 18565 ft | 402 kts | 116° |
| 2026-05-05 17:07 | 50.20963 | 7.28508 | 18032 ft | 399 kts | 116° |
| 2026-05-05 17:07 | 50.19784 | 7.32418 | 17466 ft | 396 kts | 116° |
| 2026-05-05 17:08 | 50.18693 | 7.36355 | 16976 ft | 394 kts | 114° |
| 2026-05-05 17:08 | 50.17719 | 7.40295 | 16801 ft | 398 kts | 112° |
| 2026-05-05 17:08 | 50.16769 | 7.44377 | 16049 ft | 404 kts | 111° |
| 2026-05-05 17:08 | 50.15826 | 7.48530 | 15320 ft | 404 kts | 111° |
| 2026-05-05 17:09 | 50.14900 | 7.52609 | 14867 ft | 396 kts | 111° |
| 2026-05-05 17:09 | 50.13974 | 7.56616 | 14351 ft | 391 kts | 112° |
| 2026-05-05 17:09 | 50.13039 | 7.60574 | 13843 ft | 388 kts | 112° |
| 2026-05-05 17:09 | 50.12096 | 7.64494 | 13308 ft | 385 kts | 112° |
| 2026-05-05 17:10 | 50.11061 | 7.68308 | 12794 ft | 380 kts | 120° |
| 2026-05-05 17:10 | 50.09655 | 7.71745 | 12546 ft | 376 kts | 127° |
| 2026-05-05 17:10 | 50.08154 | 7.75079 | 12305 ft | 375 kts | 127° |
| 2026-05-05 17:10 | 50.06678 | 7.78396 | 11929 ft | 370 kts | 127° |
| 2026-05-05 17:11 | 50.05224 | 7.81675 | 11364 ft | 366 kts | 127° |
| 2026-05-05 17:11 | 50.03785 | 7.84918 | 10763 ft | 363 kts | 127° |
| 2026-05-05 17:11 | 50.02369 | 7.88141 | 10179 ft | 360 kts | 124° |
| 2026-05-05 17:11 | 50.01293 | 7.91631 | 9697 ft | 356 kts | 110° |
| 2026-05-05 17:12 | 50.00766 | 7.95260 | 9566 ft | 342 kts | 98° |
| 2026-05-05 17:12 | 50.00732 | 7.98921 | 9432 ft | 329 kts | 86° |
| 2026-05-05 17:12 | 50.01154 | 8.02305 | 9297 ft | 318 kts | 74° |
| 2026-05-05 17:12 | 50.01908 | 8.05468 | 9167 ft | 306 kts | 70° |
| 2026-05-05 17:13 | 50.02658 | 8.08509 | 8976 ft | 297 kts | 70° |
| 2026-05-05 17:13 | 50.03390 | 8.11499 | 8833 ft | 295 kts | 71° |
| 2026-05-05 17:13 | 50.04116 | 8.14486 | 8842 ft | 295 kts | 71° |
| 2026-05-05 17:13 | 50.04838 | 8.17474 | 8856 ft | 295 kts | 71° |
| 2026-05-05 17:14 | 50.05560 | 8.20467 | 8856 ft | 296 kts | 71° |
| 2026-05-05 17:14 | 50.06284 | 8.23461 | 8850 ft | 295 kts | 71° |
| 2026-05-05 17:14 | 50.07009 | 8.26450 | 8854 ft | 294 kts | 71° |
| 2026-05-05 17:14 | 50.07728 | 8.29420 | 8854 ft | 293 kts | 71° |
| 2026-05-05 17:15 | 50.08444 | 8.32391 | 8852 ft | 293 kts | 71° |
| 2026-05-05 17:15 | 50.09159 | 8.35356 | 8850 ft | 293 kts | 71° |
| 2026-05-05 17:15 | 50.09877 | 8.38334 | 8853 ft | 293 kts | 71° |
| 2026-05-05 17:15 | 50.10589 | 8.41303 | 8843 ft | 293 kts | 71° |
| 2026-05-05 17:16 | 50.11301 | 8.44284 | 8837 ft | 293 kts | 71° |
| 2026-05-05 17:16 | 50.12011 | 8.47250 | 8836 ft | 292 kts | 71° |
| 2026-05-05 17:16 | 50.12720 | 8.50207 | 8833 ft | 291 kts | 71° |
| 2026-05-05 17:16 | 50.13432 | 8.53163 | 8840 ft | 291 kts | 71° |
| 2026-05-05 17:17 | 50.14142 | 8.56121 | 8842 ft | 291 kts | 71° |
| 2026-05-05 17:17 | 50.14834 | 8.59021 | 8831 ft | 277 kts | 72° |
| 2026-05-05 17:17 | 50.15486 | 8.61757 | 8842 ft | 262 kts | 72° |
| 2026-05-05 17:17 | 50.16114 | 8.64398 | 8839 ft | 258 kts | 72° |
| 2026-05-05 17:18 | 50.16735 | 8.67023 | 8831 ft | 258 kts | 72° |
| 2026-05-05 17:18 | 50.17355 | 8.69650 | 8829 ft | 258 kts | 72° |
| 2026-05-05 17:18 | 50.17973 | 8.72272 | 8832 ft | 258 kts | 72° |
| 2026-05-05 17:18 | 50.18594 | 8.74901 | 8829 ft | 258 kts | 72° |
| 2026-05-05 17:19 | 50.19215 | 8.77523 | 8840 ft | 257 kts | 72° |
| 2026-05-05 17:19 | 50.19834 | 8.80140 | 8840 ft | 257 kts | 72° |
| 2026-05-05 17:19 | 50.20452 | 8.82759 | 8829 ft | 257 kts | 72° |
| 2026-05-05 17:19 | 50.21068 | 8.85382 | 8829 ft | 257 kts | 72° |
| 2026-05-05 17:20 | 50.21677 | 8.87972 | 8822 ft | 257 kts | 72° |
| 2026-05-05 17:20 | 50.22291 | 8.90591 | 8822 ft | 257 kts | 72° |
| 2026-05-05 17:20 | 50.22907 | 8.93216 | 8822 ft | 257 kts | 72° |
| 2026-05-05 17:20 | 50.23520 | 8.95823 | 8585 ft | 255 kts | 72° |
| 2026-05-05 17:21 | 50.24129 | 8.98423 | 8243 ft | 255 kts | 72° |
| 2026-05-05 17:21 | 50.24737 | 9.01017 | 7916 ft | 254 kts | 72° |
| 2026-05-05 17:21 | 50.25282 | 9.03620 | 7576 ft | 250 kts | 83° |
| 2026-05-05 17:22 | 50.24165 | 9.08308 | 6911 ft | 235 kts | 147° |
| 2026-05-05 17:22 | 50.22683 | 9.09202 | 6575 ft | 229 kts | 178° |
| 2026-05-05 17:22 | 50.21155 | 9.08692 | 6227 ft | 227 kts | 210° |
| 2026-05-05 17:22 | 50.19913 | 9.07161 | 5832 ft | 229 kts | 222° |
| 2026-05-05 17:23 | 50.18767 | 9.05439 | 5467 ft | 229 kts | 224° |
| 2026-05-05 17:23 | 50.17633 | 9.03704 | 5142 ft | 228 kts | 224° |
| 2026-05-05 17:23 | 50.16512 | 9.01980 | 4991 ft | 225 kts | 224° |
| 2026-05-05 17:23 | 50.15597 | 8.99996 | 4992 ft | 228 kts | 245° |
| 2026-05-05 17:24 | 50.15027 | 8.97675 | 4997 ft | 230 kts | 249° |
| 2026-05-05 17:24 | 50.14496 | 8.95321 | 4997 ft | 230 kts | 249° |
| 2026-05-05 17:24 | 50.13952 | 8.92976 | 4998 ft | 230 kts | 248° |
| 2026-05-05 17:24 | 50.13406 | 8.90646 | 4996 ft | 226 kts | 248° |
| 2026-05-05 17:25 | 50.12885 | 8.88425 | 4996 ft | 211 kts | 248° |
| 2026-05-05 17:25 | 50.12558 | 8.87034 | 4997 ft | 203 kts | 248° |
| 2026-05-05 17:25 | 50.11918 | 8.84316 | 4768 ft | 198 kts | 248° |
| 2026-05-05 17:25 | 50.11443 | 8.82303 | 4511 ft | 197 kts | 249° |
| 2026-05-05 17:26 | 50.10971 | 8.80298 | 4247 ft | 195 kts | 249° |
| 2026-05-05 17:26 | 50.10512 | 8.78351 | 3961 ft | 188 kts | 249° |
| 2026-05-05 17:26 | 50.10067 | 8.76468 | 3685 ft | 182 kts | 249° |
| 2026-05-05 17:26 | 50.09638 | 8.74654 | 3441 ft | 176 kts | 250° |
| 2026-05-05 17:27 | 50.09222 | 8.72894 | 3189 ft | 171 kts | 249° |
| 2026-05-05 17:27 | 50.08810 | 8.71154 | 2950 ft | 171 kts | 250° |
| 2026-05-05 17:27 | 50.08405 | 8.69447 | 2712 ft | 169 kts | 250° |
| 2026-05-05 17:27 | 50.08014 | 8.67799 | 2481 ft | 156 kts | 250° |
| 2026-05-05 17:28 | 50.07652 | 8.66273 | 2260 ft | 145 kts | 250° |
| 2026-05-05 17:28 | 50.07314 | 8.64852 | 2075 ft | 135 kts | 250° |
| 2026-05-05 17:28 | 50.06994 | 8.63505 | 1874 ft | 131 kts | 251° |
| 2026-05-05 17:28 | 50.06678 | 8.62174 | 1686 ft | 131 kts | 250° |
| 2026-05-05 17:29 | 50.06364 | 8.60853 | 1494 ft | 130 kts | 251° |
| 2026-05-05 17:29 | 50.06048 | 8.59526 | 1311 ft | 131 kts | 251° |
| 2026-05-05 17:29 | 50.05731 | 8.58195 | 1104 ft | 132 kts | 250° |
| 2026-05-05 17:29 | 50.05412 | 8.56856 | 918 ft | 132 kts | 249° |
| 2026-05-05 17:30 | 50.05092 | 8.55516 | 728 ft | 132 kts | 249° |
| 2026-05-05 17:30 | 50.04776 | 8.54175 | 534 ft | 131 kts | 249° |
| 2026-05-05 17:30 | 50.04458 | 8.52855 | 369 ft | 130 kts | 248° |
| 2026-05-05 17:30 | 50.04185 | 8.51712 | 332 ft | 89 kts | 250° |
| 2026-05-05 17:31 | 50.04030 | 8.51062 | 326 ft | 40 kts | 249° |
| 2026-05-05 17:31 | 50.03943 | 8.50704 | 323 ft | 34 kts | 249° |
| 2026-05-05 17:31 | 50.03839 | 8.50390 | 321 ft | 32 kts | 228° |
| 2026-05-05 17:31 | 50.03698 | 8.50196 | 319 ft | 15 kts | 211° |
| 2026-05-05 17:32 | 50.03633 | 8.50247 | 324 ft | 10 kts | 104° |
| 2026-05-05 17:32 | 50.03647 | 8.50359 | 325 ft | 14 kts | 71° |
| 2026-05-05 17:32 | 50.03675 | 8.50485 | 326 ft | 10 kts | 71° |
| 2026-05-05 17:32 | 50.03705 | 8.50606 | 329 ft | 17 kts | 69° |
| 2026-05-05 17:33 | 50.03745 | 8.50774 | 329 ft | 15 kts | 70° |
| 2026-05-05 17:33 | 50.03785 | 8.50940 | 331 ft | 16 kts | 69° |
| 2026-05-05 17:33 | 50.03825 | 8.51109 | 332 ft | 18 kts | 69° |
| 2026-05-05 17:33 | 50.03871 | 8.51301 | 332 ft | 19 kts | 70° |
| 2026-05-05 17:34 | 50.03920 | 8.51506 | 335 ft | 22 kts | 70° |
| 2026-05-05 17:34 | 50.03975 | 8.51732 | 335 ft | 23 kts | 70° |
| 2026-05-05 17:34 | 50.04032 | 8.51971 | 335 ft | 24 kts | 70° |
| 2026-05-05 17:34 | 50.04089 | 8.52212 | 348 ft | 24 kts | 70° |
| 2026-05-05 17:35 | 50.04146 | 8.52454 | 350 ft | 24 kts | 69° |
| 2026-05-05 17:35 | 50.04204 | 8.52695 | 355 ft | 24 kts | 70° |
| 2026-05-05 17:35 | 50.04263 | 8.52940 | 357 ft | 24 kts | 69° |
| 2026-05-05 17:35 | 50.04322 | 8.53184 | 360 ft | 23 kts | 69° |
| 2026-05-05 17:36 | 50.04374 | 8.53395 | 374 ft | 19 kts | 69° |
| 2026-05-05 17:36 | 50.04399 | 8.53581 | 375 ft | 17 kts | 83° |
| 2026-05-05 17:36 | 50.04415 | 8.53807 | 375 ft | 24 kts | 84° |
| 2026-05-05 17:36 | 50.04431 | 8.54073 | 375 ft | 26 kts | 84° |
| 2026-05-05 17:37 | 50.04450 | 8.54351 | 373 ft | 23 kts | 84° |
| 2026-05-05 17:37 | 50.04448 | 8.54507 | 368 ft | 23 kts | 99° |
| 2026-05-05 17:37 | 50.04312 | 8.54772 | 359 ft | 19 kts | 157° |
| 2026-05-05 17:37 | 50.04180 | 8.54847 | 358 ft | 13 kts | 161° |
| 2026-05-05 17:38 | 50.04107 | 8.54887 | 350 ft | 11 kts | 160° |
| 2026-05-05 17:38 | 50.04029 | 8.54934 | 356 ft | 12 kts | 159° |
| 2026-05-05 17:38 | 50.03944 | 8.54986 | 356 ft | 15 kts | 159° |
| 2026-05-05 17:38 | 50.03852 | 8.55063 | 355 ft | 16 kts | 121° |
| 2026-05-05 17:39 | 50.03874 | 8.55218 | 357 ft | 14 kts | 69° |
| 2026-05-05 17:39 | 50.03907 | 8.55357 | 349 ft | 13 kts | 70° |
| 2026-05-05 17:39 | 50.03939 | 8.55491 | 357 ft | 14 kts | 70° |
| 2026-05-05 17:39 | 50.03980 | 8.55666 | 350 ft | 18 kts | 70° |
| 2026-05-05 17:40 | 50.04024 | 8.55852 | 359 ft | 18 kts | 69° |
| 2026-05-05 17:40 | 50.04071 | 8.56040 | 359 ft | 19 kts | 69° |
| 2026-05-05 17:40 | 50.04116 | 8.56231 | 355 ft | 19 kts | 70° |
| 2026-05-05 17:40 | 50.04163 | 8.56431 | 358 ft | 20 kts | 69° |
| 2026-05-05 17:41 | 50.04210 | 8.56632 | 357 ft | 20 kts | 70° |
| 2026-05-05 17:41 | 50.04259 | 8.56834 | 362 ft | 20 kts | 69° |
| 2026-05-05 17:41 | 50.04311 | 8.57050 | 361 ft | 22 kts | 70° |
| 2026-05-05 17:41 | 50.04367 | 8.57283 | 362 ft | 24 kts | 69° |
| 2026-05-05 17:42 | 50.04426 | 8.57524 | 361 ft | 22 kts | 69° |
| 2026-05-05 17:42 | 50.04479 | 8.57749 | 365 ft | 23 kts | 69° |
| 2026-05-05 17:42 | 50.04521 | 8.57931 | 366 ft | 13 kts | 70° |
| 2026-05-05 17:42 | 50.04575 | 8.58028 | 361 ft | 13 kts | 7° |
| 2026-05-05 17:43 | 50.04670 | 8.57982 | 361 ft | 15 kts | 340° |
| 2026-05-05 17:43 | 50.04769 | 8.57926 | 361 ft | 15 kts | 340° |
| 2026-05-05 17:43 | 50.04845 | 8.57848 | 362 ft | 13 kts | 297° |
| 2026-05-05 17:43 | 50.04880 | 8.57719 | 359 ft | 14 kts | 294° |
| 2026-05-05 17:44 | 50.04916 | 8.57592 | 357 ft | 11 kts | 294° |
| 2026-05-05 17:44 | 50.04940 | 8.57510 | 360 ft | 5 kts | 294° |
| 2026-05-05 17:44 | 50.04963 | 8.57484 | 358 ft | 4 kts | 355° |
| 2026-05-05 17:44 | 50.04981 | 8.57500 | 359 ft | 3 kts | 32° |
| 2026-05-05 17:45 | 50.04996 | 8.57511 | 357 ft | 2 kts | 22° |
| 2026-05-05 17:45 | 50.05006 | 8.57517 | 360 ft | 1 kts | 22° |
| 2026-05-05 17:45 | 50.05014 | 8.57522 | 358 ft | 0 kts | 22° |